Time;durP1;ratioP1;P1;durP2;ratioP2;P2;SDS_P1;SDS_P2;PMS_P1;PMS_P2;Temp;Humidity;BMP_temperature;BMP_pressure;BME280_temperature;BME280_humidity;BME280_pressure;Samples;Min_cycle;Max_cycle;Signal;HPM_P1;HPM_P2
2023/04/30 00:01:16;;;;;;;5.03;2.65;;;12.00;99.90;;;;;;4955227;29;20577;-75
2023/04/30 00:03:43;;;;;;;2.75;2.53;;;12.00;99.90;;;;;;4953822;28;20244;-76
2023/04/30 00:06:10;;;;;;;4.53;2.80;;;11.90;99.90;;;;;;4955063;28;20291;-75
2023/04/30 00:08:40;;;;;;;5.35;2.67;;;11.90;99.90;;;;;;4955974;29;20232;-76
2023/04/30 00:11:08;;;;;;;5.95;2.50;;;11.90;99.90;;;;;;4954230;29;20282;-78
2023/04/30 00:13:36;;;;;;;3.80;2.20;;;11.90;99.90;;;;;;4952976;29;20242;-77
2023/04/30 00:16:04;;;;;;;6.03;2.30;;;11.80;99.90;;;;;;4953271;28;20295;-76
2023/04/30 00:18:33;;;;;;;4.40;2.53;;;11.70;99.90;;;;;;4954423;29;20595;-77
2023/04/30 00:21:00;;;;;;;4.28;2.25;;;11.70;99.90;;;;;;4955182;29;20682;-76
2023/04/30 00:23:27;;;;;;;3.83;2.60;;;11.70;99.90;;;;;;4953233;29;20220;-76
2023/04/30 00:25:55;;;;;;;3.92;2.20;;;11.60;99.90;;;;;;4953436;28;20704;-76
2023/04/30 00:28:22;;;;;;;3.83;1.98;;;11.60;99.90;;;;;;4954335;29;20254;-76
2023/04/30 00:30:51;;;;;;;3.88;2.20;;;11.60;99.90;;;;;;4952319;29;20258;-76
2023/04/30 00:33:18;;;;;;;7.55;2.65;;;11.60;99.90;;;;;;4946002;29;20217;-77
2023/04/30 00:35:45;;;;;;;2.25;1.95;;;11.60;99.90;;;;;;4949587;28;20575;-76
2023/04/30 00:38:12;;;;;;;4.85;2.00;;;11.60;99.90;;;;;;4954569;29;20628;-76
2023/04/30 00:40:42;;;;;;;3.28;1.80;;;11.50;99.90;;;;;;4955019;29;20224;-78
2023/04/30 00:43:09;;;;;;;6.13;2.65;;;11.50;99.90;;;;;;4954675;29;20220;-77
2023/04/30 00:45:36;;;;;;;4.05;2.30;;;11.50;99.90;;;;;;4954857;29;20255;-76
2023/04/30 00:48:06;;;;;;;4.90;2.28;;;11.50;99.90;;;;;;4955442;29;20228;-78
2023/04/30 00:50:35;;;;;;;3.03;1.95;;;11.40;99.90;;;;;;4954662;29;20231;-77
2023/04/30 00:53:03;;;;;;;5.20;2.15;;;11.40;99.90;;;;;;4954665;29;20224;-76
2023/04/30 00:55:30;;;;;;;4.50;2.47;;;11.40;99.90;;;;;;4952627;28;20558;-77
2023/04/30 00:58:00;;;;;;;4.47;1.90;;;11.40;99.90;;;;;;4955381;29;20326;-78
2023/04/30 01:00:36;;;;;;;7.13;4.00;;;11.30;99.90;;;;;;4954476;29;20700;-77
2023/04/30 01:03:06;;;;;;;5.18;3.35;;;11.30;99.90;;;;;;4956016;29;20258;-77
2023/04/30 01:05:35;;;;;;;5.82;3.88;;;11.20;99.90;;;;;;4955311;28;20231;-76
2023/04/30 01:08:04;;;;;;;6.25;2.50;;;11.20;99.90;;;;;;4951130;29;20224;-76
2023/04/30 01:10:36;;;;;;;4.75;2.15;;;11.20;99.90;;;;;;4958420;29;20271;-77
2023/04/30 01:13:10;;;;;;;4.15;2.13;;;11.10;99.90;;;;;;4958640;29;20251;-77
2023/04/30 01:15:43;;;;;;;3.22;2.83;;;11.10;99.90;;;;;;4958153;28;20552;-77
2023/04/30 01:18:17;;;;;;;6.10;2.75;;;11.10;99.90;;;;;;4958649;29;20219;-77
2023/04/30 01:20:52;;;;;;;4.88;2.25;;;11.10;99.90;;;;;;4947123;29;20311;-77
2023/04/30 01:23:33;;;;;;;3.72;2.92;;;11.00;99.90;;;;;;4957785;29;20227;-77
2023/04/30 01:26:11;;;;;;;2.72;2.45;;;11.00;99.90;;;;;;4956693;28;20319;-76
2023/04/30 01:28:42;;;;;;;4.75;2.30;;;10.90;99.90;;;;;;4958069;29;20232;-77
2023/04/30 01:31:15;;;;;;;6.68;2.60;;;10.80;99.90;;;;;;4959938;29;20242;-75
2023/04/30 01:33:42;;;;;;;5.03;2.70;;;10.80;99.90;;;;;;4948512;29;20296;-76
2023/04/30 01:36:40;;;;;;;3.03;2.22;;;10.80;99.90;;;;;;4945680;29;20228;-77
2023/04/30 01:39:20;;;;;;;7.32;3.20;;;10.80;99.90;;;;;;4948260;29;20235;-77
2023/04/30 01:41:55;;;;;;;2.80;1.90;;;10.80;99.90;;;;;;4954743;29;20539;-77
2023/04/30 01:44:43;;;;;;;6.40;2.85;;;10.70;99.90;;;;;;4940163;29;20224;-76
2023/04/30 01:47:20;;;;;;;4.03;2.22;;;10.70;99.90;;;;;;4939370;29;20228;-77
2023/04/30 01:49:57;;;;;;;4.63;3.00;;;10.70;99.90;;;;;;4944364;29;20224;-77
2023/04/30 01:52:48;;;;;;;6.38;2.88;;;10.70;99.90;;;;;;4944565;29;20231;-76
2023/04/30 01:55:20;;;;;;;8.68;3.35;;;10.60;99.90;;;;;;4965838;28;21260;-77
2023/04/30 01:57:55;;;;;;;3.53;2.15;;;10.70;99.90;;;;;;4969973;29;20726;-77
2023/04/30 02:00:24;;;;;;;8.20;3.45;;;10.60;99.90;;;;;;4969410;29;20223;-77
2023/04/30 02:02:52;;;;;;;5.22;2.85;;;10.60;99.90;;;;;;4974173;29;20212;-77
2023/04/30 02:05:22;;;;;;;6.45;2.70;;;10.50;99.90;;;;;;4971865;28;20273;-78
2023/04/30 02:07:51;;;;;;;4.45;2.72;;;10.50;99.90;;;;;;4968490;29;20254;-78
2023/04/30 02:10:21;;;;;;;5.70;3.55;;;10.50;99.90;;;;;;4969685;29;20288;-76
2023/04/30 02:12:49;;;;;;;5.88;4.47;;;10.50;99.90;;;;;;4971515;29;20256;-77
2023/04/30 02:15:18;;;;;;;3.58;2.90;;;10.50;99.90;;;;;;4968667;28;20301;-77
2023/04/30 02:17:47;;;;;;;9.63;3.13;;;10.50;99.90;;;;;;4967641;28;20303;-77
2023/04/30 02:20:14;;;;;;;5.05;3.47;;;10.50;99.90;;;;;;4960927;29;20290;-77
2023/04/30 02:22:41;;;;;;;4.93;2.90;;;10.50;99.90;;;;;;4957206;29;20686;-77
2023/04/30 02:25:11;;;;;;;4.32;2.25;;;10.50;99.90;;;;;;4956134;28;20231;-77
2023/04/30 02:27:39;;;;;;;6.57;3.33;;;10.50;99.90;;;;;;4956388;29;20231;-77
2023/04/30 02:30:10;;;;;;;4.45;2.53;;;10.50;99.90;;;;;;4956614;29;20228;-77
2023/04/30 02:32:37;;;;;;;3.88;2.53;;;10.50;99.90;;;;;;4956424;29;20232;-77
2023/04/30 02:35:09;;;;;;;5.88;3.33;;;10.40;99.90;;;;;;4936688;29;20260;-76
2023/04/30 02:37:36;;;;;;;5.93;2.90;;;10.40;99.90;;;;;;4952564;29;20228;-77
2023/04/30 02:40:03;;;;;;;6.88;3.28;;;10.40;99.90;;;;;;4954555;28;20224;-78
2023/04/30 02:42:30;;;;;;;7.53;3.88;;;10.40;99.90;;;;;;4946258;29;20618;-77
2023/04/30 02:44:57;;;;;;;4.00;3.60;;;10.40;99.90;;;;;;4936373;29;20622;-77
2023/04/30 02:47:24;;;;;;;5.10;2.83;;;10.40;99.90;;;;;;4928326;29;20267;-77
2023/04/30 02:49:51;;;;;;;3.30;2.95;;;10.40;99.90;;;;;;4936543;29;20229;-77
2023/04/30 02:52:19;;;;;;;8.95;3.90;;;10.30;99.90;;;;;;4936136;29;20288;-77
2023/04/30 02:54:48;;;;;;;4.25;2.58;;;10.30;99.90;;;;;;4948052;28;20299;-77
2023/04/30 02:57:15;;;;;;;4.35;2.80;;;10.30;99.90;;;;;;4955400;29;20212;-76
2023/04/30 02:59:44;;;;;;;4.82;2.40;;;10.30;99.90;;;;;;4956528;29;20564;-77
2023/04/30 03:02:11;;;;;;;5.32;2.67;;;10.30;99.90;;;;;;4956409;29;20236;-74
2023/04/30 03:04:39;;;;;;;4.53;2.63;;;10.30;99.90;;;;;;4955695;28;20242;-76
2023/04/30 03:07:10;;;;;;;4.70;3.20;;;10.30;99.90;;;;;;4956044;29;20252;-77
2023/04/30 03:09:54;;;;;;;4.63;3.50;;;10.20;99.90;;;;;;4955576;29;20631;-77
2023/04/30 03:12:22;;;;;;;3.78;3.00;;;10.20;99.90;;;;;;4943274;29;20216;-77
2023/04/30 03:14:54;;;;;;;4.70;2.80;;;10.20;99.90;;;;;;4955186;28;20329;-77
2023/04/30 03:17:23;;;;;;;3.65;2.30;;;10.10;99.90;;;;;;4945939;29;20243;-77
2023/04/30 03:19:53;;;;;;;3.15;2.63;;;10.10;99.90;;;;;;4955909;29;20235;-77
2023/04/30 03:22:25;;;;;;;2.80;2.55;;;10.10;99.90;;;;;;4955257;29;20709;-77
2023/04/30 03:24:54;;;;;;;7.78;4.32;;;10.10;99.90;;;;;;4956023;28;20232;-78
2023/04/30 03:27:21;;;;;;;5.07;2.95;;;10.00;99.90;;;;;;4954483;29;20234;-77
2023/04/30 03:29:48;;;;;;;4.68;3.08;;;10.00;99.90;;;;;;4954226;28;20224;-78
2023/04/30 03:32:15;;;;;;;4.40;3.83;;;10.00;99.90;;;;;;4955867;29;20228;-79
2023/04/30 03:34:43;;;;;;;5.97;3.42;;;9.90;99.90;;;;;;4938118;29;20272;-77
2023/04/30 03:37:13;;;;;;;3.45;2.50;;;9.90;99.90;;;;;;4950459;29;20223;-77
2023/04/30 03:39:40;;;;;;;6.43;3.10;;;9.80;99.90;;;;;;4954848;29;20237;-77
2023/04/30 03:42:12;;;;;;;4.88;3.22;;;9.90;99.90;;;;;;4949243;29;20225;-77
2023/04/30 03:44:39;;;;;;;3.60;2.67;;;9.80;99.90;;;;;;4925893;29;20408;-76
2023/04/30 03:47:07;;;;;;;6.82;3.03;;;9.80;99.90;;;;;;4934953;29;20229;-78
2023/04/30 03:49:35;;;;;;;4.63;2.90;;;9.80;99.90;;;;;;4940971;29;20326;-77
2023/04/30 03:52:02;;;;;;;3.75;2.90;;;9.70;99.90;;;;;;4954552;29;20584;-77
2023/04/30 03:54:32;;;;;;;7.43;5.35;;;9.70;99.90;;;;;;4955127;28;20251;-77
2023/04/30 03:57:02;;;;;;;5.38;3.50;;;9.60;99.90;;;;;;4944800;29;20227;-77
2023/04/30 03:59:33;;;;;;;6.07;3.58;;;9.60;99.90;;;;;;4954492;29;20673;-77
2023/04/30 04:02:01;;;;;;;6.45;4.05;;;9.50;99.90;;;;;;4946935;29;20231;-76
2023/04/30 04:04:28;;;;;;;4.75;3.47;;;9.60;99.90;;;;;;4955458;28;20262;-77
2023/04/30 04:06:56;;;;;;;5.70;3.00;;;9.60;99.90;;;;;;4954987;29;20312;-78
2023/04/30 04:09:26;;;;;;;3.78;2.67;;;9.50;99.90;;;;;;4955262;29;20248;-77
2023/04/30 04:11:56;;;;;;;5.50;3.15;;;9.50;99.90;;;;;;4954980;29;20665;-76
2023/04/30 04:14:23;;;;;;;7.53;3.17;;;9.40;99.90;;;;;;4954930;28;20243;-77
2023/04/30 04:16:52;;;;;;;3.88;3.00;;;9.40;99.90;;;;;;4954358;29;20257;-77
2023/04/30 04:19:19;;;;;;;3.72;3.40;;;9.40;99.90;;;;;;4955086;29;20259;-77
2023/04/30 04:21:47;;;;;;;3.75;3.22;;;9.40;99.90;;;;;;4953538;29;20694;-78
2023/04/30 04:24:15;;;;;;;7.13;3.63;;;9.40;99.90;;;;;;4954638;29;20311;-76
2023/04/30 04:26:42;;;;;;;4.55;3.28;;;9.40;99.90;;;;;;4954342;28;20624;-77
2023/04/30 04:29:09;;;;;;;5.13;3.25;;;9.40;99.90;;;;;;4954562;29;20295;-76
2023/04/30 04:31:37;;;;;;;6.00;3.53;;;9.40;99.90;;;;;;4953143;29;20247;-77
2023/04/30 04:34:07;;;;;;;7.00;3.75;;;9.40;99.90;;;;;;4944859;29;20231;-78
2023/04/30 04:36:34;;;;;;;3.35;3.03;;;9.40;99.90;;;;;;4953922;29;20236;-77
2023/04/30 04:39:04;;;;;;;6.10;3.72;;;9.40;99.90;;;;;;4954386;29;20234;-76
2023/04/30 04:41:32;;;;;;;6.30;3.42;;;9.40;99.90;;;;;;4954682;29;20232;-77
2023/04/30 04:44:00;;;;;;;8.82;5.72;;;9.40;99.90;;;;;;4954407;29;20315;-77
2023/04/30 04:46:28;;;;;;;6.32;3.80;;;9.40;99.90;;;;;;4954470;28;20275;-76
2023/04/30 04:48:57;;;;;;;5.05;2.83;;;9.40;99.90;;;;;;4954115;29;20714;-76
2023/04/30 04:51:26;;;;;;;6.20;3.83;;;9.40;99.90;;;;;;4953822;29;20310;-77
2023/04/30 04:53:53;;;;;;;7.80;3.25;;;9.40;99.90;;;;;;4954637;29;20683;-76
2023/04/30 04:56:20;;;;;;;4.28;3.33;;;9.40;99.90;;;;;;4953572;28;20228;-78
2023/04/30 04:58:48;;;;;;;5.72;3.10;;;9.40;99.90;;;;;;4954726;29;20646;-76
2023/04/30 05:01:15;;;;;;;6.50;3.47;;;9.40;99.90;;;;;;4954365;29;20238;-77
2023/04/30 05:03:42;;;;;;;6.53;4.05;;;9.40;99.90;;;;;;4954144;29;20243;-76
2023/04/30 05:06:10;;;;;;;7.00;3.17;;;9.50;99.90;;;;;;4954605;28;20243;-77
2023/04/30 05:08:38;;;;;;;4.25;3.75;;;9.50;99.90;;;;;;4953710;29;20255;-76
2023/04/30 05:11:07;;;;;;;6.25;4.53;;;9.50;99.90;;;;;;4954747;29;20236;-76
2023/04/30 05:13:33;;;;;;;3.67;2.95;;;9.50;99.90;;;;;;4958172;29;20254;-76
2023/04/30 05:16:01;;;;;;;6.70;4.22;;;9.50;99.90;;;;;;4954343;28;20286;-76
2023/04/30 05:18:31;;;;;;;5.25;3.55;;;9.50;99.90;;;;;;4952562;29;20307;-75
2023/04/30 05:20:58;;;;;;;4.30;3.45;;;9.50;99.90;;;;;;4954306;29;20220;-76
2023/04/30 05:23:25;;;;;;;8.32;4.30;;;9.50;99.90;;;;;;4943600;28;20236;-76
2023/04/30 05:25:54;;;;;;;7.60;4.50;;;9.50;99.90;;;;;;4953514;29;20687;-75
2023/04/30 05:28:21;;;;;;;17.98;8.45;;;9.50;99.90;;;;;;4952904;29;20232;-76
2023/04/30 05:30:48;;;;;;;7.00;4.30;;;9.60;99.90;;;;;;4954353;29;20229;-76
2023/04/30 05:33:15;;;;;;;3.33;3.03;;;9.70;99.90;;;;;;4953658;29;20265;-75
2023/04/30 05:35:42;;;;;;;9.32;3.50;;;9.60;99.90;;;;;;4953859;28;20239;-77
2023/04/30 05:38:09;;;;;;;4.93;4.47;;;9.70;99.90;;;;;;4951513;29;20693;-78
2023/04/30 05:40:36;;;;;;;6.47;3.53;;;9.60;99.90;;;;;;4953976;29;20255;-78
2023/04/30 05:43:05;;;;;;;5.25;3.92;;;9.70;99.90;;;;;;4953908;29;20365;-77
2023/04/30 05:45:32;;;;;;;6.32;3.55;;;9.70;99.90;;;;;;4953766;28;20238;-76
2023/04/30 05:48:00;;;;;;;5.53;3.15;;;9.70;99.90;;;;;;4954163;29;20227;-77
2023/04/30 05:50:27;;;;;;;8.32;3.63;;;9.70;99.90;;;;;;4943178;28;20255;-76
2023/04/30 05:52:54;;;;;;;6.85;5.75;;;9.80;99.90;;;;;;4955825;28;20737;-78
2023/04/30 05:55:21;;;;;;;7.57;4.78;;;9.80;99.90;;;;;;4956672;28;20235;-75
2023/04/30 05:57:48;;;;;;;6.97;3.92;;;9.90;99.90;;;;;;4957188;29;20228;-76
2023/04/30 06:00:18;;;;;;;5.40;4.05;;;9.90;99.90;;;;;;4957404;29;20224;-78
2023/04/30 06:02:45;;;;;;;9.60;4.63;;;10.00;99.90;;;;;;4956518;29;20224;-77
2023/04/30 06:05:12;;;;;;;8.25;4.60;;;10.00;99.90;;;;;;4957372;28;20250;-77
2023/04/30 06:07:39;;;;;;;8.73;5.07;;;10.00;99.90;;;;;;4957245;29;20310;-77
2023/04/30 06:10:11;;;;;;;6.00;4.00;;;10.00;99.90;;;;;;4957704;29;20302;-76
2023/04/30 06:12:39;;;;;;;6.35;3.65;;;10.10;99.90;;;;;;4956543;29;20291;-78
2023/04/30 06:15:07;;;;;;;6.30;3.50;;;10.20;99.90;;;;;;4957659;28;20629;-76
2023/04/30 06:17:36;;;;;;;6.68;4.32;;;10.20;99.90;;;;;;4956816;29;20231;-76
2023/04/30 06:20:05;;;;;;;6.80;3.67;;;10.20;99.90;;;;;;4958257;29;20220;-75
2023/04/30 06:22:33;;;;;;;7.05;3.42;;;10.20;99.90;;;;;;4955990;29;20224;-78
2023/04/30 06:25:00;;;;;;;7.05;3.63;;;10.30;99.90;;;;;;4957907;28;20269;-78
2023/04/30 06:27:27;;;;;;;5.78;3.65;;;10.30;99.90;;;;;;4956512;29;20228;-78
2023/04/30 06:29:55;;;;;;;5.30;4.10;;;10.40;99.90;;;;;;4947561;29;20225;-77
2023/04/30 06:32:23;;;;;;;4.28;3.58;;;10.40;99.90;;;;;;4955528;29;20393;-78
2023/04/30 06:34:51;;;;;;;6.07;4.40;;;10.50;99.90;;;;;;4956016;28;20228;-78
2023/04/30 06:37:19;;;;;;;6.82;3.97;;;10.50;99.90;;;;;;4956902;29;20303;-77
2023/04/30 06:39:46;;;;;;;6.43;4.30;;;10.60;99.90;;;;;;4956321;29;20236;-77
2023/04/30 06:42:16;;;;;;;8.55;4.18;;;10.60;99.90;;;;;;4956312;29;20621;-77
2023/04/30 06:44:44;;;;;;;11.10;3.67;;;10.70;99.90;;;;;;4956485;28;20315;-78
2023/04/30 06:47:11;;;;;;;7.20;3.10;;;10.70;99.90;;;;;;4956156;29;20255;-77
2023/04/30 06:49:40;;;;;;;6.20;3.55;;;10.80;99.90;;;;;;4956273;29;20239;-78
2023/04/30 06:52:10;;;;;;;7.53;4.45;;;10.90;99.90;;;;;;4956191;29;20228;-78
2023/04/30 06:54:37;;;;;;;9.38;4.00;;;10.90;99.90;;;;;;4955474;28;20228;-79
2023/04/30 06:57:04;;;;;;;11.32;3.65;;;10.90;99.90;;;;;;4956042;29;20224;-77
2023/04/30 06:59:31;;;;;;;6.18;3.08;;;10.90;99.90;;;;;;4956254;29;20311;-77
2023/04/30 07:01:58;;;;;;;4.97;3.50;;;11.00;99.90;;;;;;4956116;29;20311;-77
2023/04/30 07:04:26;;;;;;;5.50;3.55;;;11.00;99.90;;;;;;4945210;28;20228;-77
2023/04/30 07:06:53;;;;;;;5.20;4.05;;;11.10;99.90;;;;;;4947258;29;20643;-77
2023/04/30 07:09:22;;;;;;;5.35;3.20;;;11.10;99.90;;;;;;4956343;29;20678;-77
2023/04/30 07:11:49;;;;;;;4.20;3.13;;;11.20;99.90;;;;;;4955448;29;20228;-77
2023/04/30 07:14:16;;;;;;;8.13;5.60;;;11.30;99.90;;;;;;4955779;29;20569;-77
2023/04/30 07:16:43;;;;;;;7.28;4.07;;;11.30;99.90;;;;;;4947126;28;20239;-78
2023/04/30 07:19:10;;;;;;;7.25;3.83;;;11.40;99.90;;;;;;4956352;29;20307;-78
2023/04/30 07:21:37;;;;;;;7.20;3.72;;;11.50;99.90;;;;;;4956266;29;20242;-78
2023/04/30 07:24:05;;;;;;;6.72;4.43;;;11.60;99.90;;;;;;4955259;29;20316;-77
2023/04/30 07:26:33;;;;;;;5.82;3.47;;;11.70;99.90;;;;;;4955844;28;20251;-78
2023/04/30 07:29:00;;;;;;;4.00;2.95;;;11.80;99.90;;;;;;4955838;29;20311;-78
2023/04/30 07:31:27;;;;;;;15.50;8.23;;;11.90;99.90;;;;;;4954450;29;20663;-77
2023/04/30 07:33:58;;;;;;;6.72;4.95;;;12.10;99.90;;;;;;4954523;29;20785;-77
2023/04/30 07:36:26;;;;;;;5.30;4.50;;;12.10;99.90;;;;;;4954445;28;20224;-75
2023/04/30 07:38:53;;;;;;;4.85;3.42;;;12.20;99.90;;;;;;4954909;29;20299;-75
2023/04/30 07:41:22;;;;;;;5.95;4.07;;;12.30;99.90;;;;;;4955129;29;20224;-76
2023/04/30 07:43:50;;;;;;;5.68;3.75;;;12.40;99.90;;;;;;4954812;29;20250;-75
2023/04/30 07:46:17;;;;;;;5.97;4.38;;;12.50;99.40;;;;;;4955207;28;20232;-76
2023/04/30 07:48:45;;;;;;;7.45;4.28;;;12.50;99.10;;;;;;4945949;29;20236;-76
2023/04/30 07:51:12;;;;;;;11.32;4.45;;;12.60;98.60;;;;;;4953745;29;20311;-75
2023/04/30 07:53:39;;;;;;;8.90;3.60;;;12.60;98.30;;;;;;4955240;29;20228;-76
2023/04/30 07:56:07;;;;;;;6.35;3.00;;;12.60;97.60;;;;;;4955043;28;20240;-76
2023/04/30 07:58:37;;;;;;;5.88;3.30;;;12.70;97.30;;;;;;4953306;29;20228;-75
2023/04/30 08:01:09;;;;;;;7.15;4.93;;;12.80;96.20;;;;;;4955081;29;20242;-76
2023/04/30 08:03:36;;;;;;;5.20;3.60;;;12.80;95.90;;;;;;4955529;29;20236;-76
2023/04/30 08:06:05;;;;;;;4.22;3.17;;;12.80;95.40;;;;;;4953119;28;20228;-76
2023/04/30 08:08:32;;;;;;;9.57;6.47;;;12.80;95.20;;;;;;4955622;29;20252;-75
2023/04/30 08:10:59;;;;;;;7.90;3.90;;;12.90;95.30;;;;;;4945563;29;20228;-76
2023/04/30 08:13:27;;;;;;;5.43;3.60;;;12.90;95.30;;;;;;4940831;29;20320;-76
2023/04/30 08:15:59;;;;;;;9.73;4.05;;;12.90;94.20;;;;;;4959549;28;20299;-76
2023/04/30 08:18:31;;;;;;;5.95;3.90;;;12.90;93.90;;;;;;4962728;29;20243;-77
2023/04/30 08:20:58;;;;;;;7.97;3.17;;;13.00;93.40;;;;;;4963778;29;20242;-77
2023/04/30 08:23:25;;;;;;;6.40;3.55;;;13.00;92.30;;;;;;4964048;29;20227;-77
2023/04/30 08:25:54;;;;;;;4.55;2.70;;;13.10;92.00;;;;;;4958513;28;20239;-76
2023/04/30 08:28:21;;;;;;;7.90;3.70;;;13.10;91.90;;;;;;4954669;29;20239;-75
2023/04/30 08:30:51;;;;;;;4.38;3.35;;;13.10;91.70;;;;;;4954605;29;20479;-75
2023/04/30 08:33:22;;;;;;;8.00;4.40;;;13.10;91.70;;;;;;4953367;29;20246;-75
2023/04/30 08:35:50;;;;;;;7.45;3.45;;;13.20;92.00;;;;;;4953971;28;20813;-75
2023/04/30 08:38:17;;;;;;;3.93;2.67;;;13.20;91.80;;;;;;4953917;29;20620;-75
2023/04/30 08:40:56;;;;;;;8.33;3.40;;;13.30;91.80;;;;;;4952994;29;20762;-76
2023/04/30 08:43:24;;;;;;;5.50;4.40;;;13.30;91.30;;;;;;4953811;29;20486;-76
2023/04/30 08:45:52;;;;;;;3.57;2.83;;;13.30;91.40;;;;;;4954550;28;20530;-76
2023/04/30 08:48:23;;;;;;;5.90;3.67;;;13.40;90.90;;;;;;4953692;29;20486;-75
2023/04/30 08:50:57;;;;;;;5.75;3.45;;;13.40;90.80;;;;;;4952168;28;20589;-75
2023/04/30 08:53:25;;;;;;;5.07;2.50;;;13.40;90.10;;;;;;4953383;29;20228;-75
2023/04/30 08:56:00;;;;;;;4.38;3.15;;;13.40;88.90;;;;;;4954547;29;20476;-76
2023/04/30 08:58:28;;;;;;;3.08;2.50;;;13.40;88.40;;;;;;4953950;29;20314;-76
2023/04/30 09:00:59;;;;;;;6.43;3.53;;;13.40;88.00;;;;;;4944612;29;20232;-75
2023/04/30 09:03:27;;;;;;;6.87;3.83;;;13.50;86.40;;;;;;4945107;29;20650;-75
2023/04/30 09:05:56;;;;;;;4.83;2.87;;;13.50;86.80;;;;;;4954722;28;20554;-75
2023/04/30 09:08:42;;;;;;;4.07;2.80;;;13.50;84.90;;;;;;4953348;28;20592;-77
2023/04/30 09:11:22;;;;;;;2.93;2.60;;;13.60;85.00;;;;;;4954267;29;20625;-76
2023/04/30 09:13:52;;;;;;;4.35;3.35;;;13.50;82.60;;;;;;4954106;29;21378;-76
2023/04/30 09:16:20;;;;;;;4.60;2.77;;;13.50;81.10;;;;;;4955487;29;20238;-76
2023/04/30 09:18:47;;;;;;;5.65;3.25;;;13.50;82.00;;;;;;4953641;29;20491;-76
2023/04/30 09:21:16;;;;;;;2.43;2.00;;;13.50;83.70;;;;;;4954499;29;20223;-76
2023/04/30 09:23:56;;;;;;;6.07;2.77;;;13.50;84.80;;;;;;4953819;29;20479;-76
2023/04/30 09:26:28;;;;;;;3.93;2.50;;;13.50;84.40;;;;;;4954176;28;20546;-76
2023/04/30 09:28:59;;;;;;;3.33;2.67;;;13.50;84.60;;;;;;4957669;29;20467;-77
2023/04/30 09:31:26;;;;;;;3.17;2.80;;;13.60;84.80;;;;;;4958526;29;20962;-76
2023/04/30 09:33:53;;;;;;;3.10;1.80;;;13.60;83.00;;;;;;4956783;29;20550;-77
2023/04/30 09:36:22;;;;;;;5.30;2.80;;;13.60;82.40;;;;;;4957461;28;20494;-76
2023/04/30 09:38:49;;;;;;;3.70;2.47;;;13.70;81.20;;;;;;4947242;29;20484;-76
2023/04/30 09:41:26;;;;;;;4.82;2.90;;;13.70;80.80;;;;;;4953044;29;20467;-76
2023/04/30 09:43:53;;;;;;;2.87;1.90;;;13.70;78.10;;;;;;4951762;28;20601;-76
2023/04/30 09:46:22;;;;;;;3.93;2.50;;;13.70;75.70;;;;;;4955996;28;20518;-76
2023/04/30 09:48:57;;;;;;;3.77;2.20;;;13.70;75.20;;;;;;4957036;29;20463;-76
2023/04/30 09:51:27;;;;;;;6.40;2.47;;;13.80;75.20;;;;;;4958291;29;20467;-77
2023/04/30 09:53:54;;;;;;;4.33;2.20;;;13.80;74.50;;;;;;4956639;29;20554;-77
2023/04/30 09:56:23;;;;;;;6.13;3.87;;;13.90;73.80;;;;;;4946777;28;20483;-76
2023/04/30 09:58:52;;;;;;;2.77;2.57;;;13.90;72.40;;;;;;4956356;29;20475;-75
2023/04/30 10:01:20;;;;;;;5.47;4.20;;;14.00;72.40;;;;;;4954707;29;20576;-77
2023/04/30 10:03:48;;;;;;;5.47;3.87;;;14.00;72.00;;;;;;4956617;29;20472;-76
2023/04/30 10:06:16;;;;;;;4.97;3.50;;;14.00;72.10;;;;;;4956951;28;20479;-76
2023/04/30 10:08:48;;;;;;;3.60;2.93;;;14.00;70.00;;;;;;4956545;29;20542;-76
2023/04/30 10:11:20;;;;;;;3.97;2.23;;;14.10;70.50;;;;;;4956790;29;20503;-77
2023/04/30 10:13:53;;;;;;;7.10;2.67;;;14.10;70.00;;;;;;4956827;29;20476;-76
2023/04/30 10:16:28;;;;;;;3.23;2.40;;;14.10;69.60;;;;;;4956252;28;20479;-77
2023/04/30 10:18:57;;;;;;;5.03;3.10;;;14.20;69.10;;;;;;4946388;29;20475;-77
2023/04/30 10:21:26;;;;;;;3.80;3.33;;;14.20;68.90;;;;;;4954436;29;20478;-76
2023/04/30 10:23:55;;;;;;;4.73;4.20;;;14.30;68.90;;;;;;4954005;29;20502;-77
2023/04/30 10:26:23;;;;;;;4.43;3.30;;;14.30;68.50;;;;;;4956519;29;20479;-77
2023/04/30 10:28:50;;;;;;;4.40;3.23;;;14.40;68.90;;;;;;4957586;29;20534;-77
2023/04/30 10:31:19;;;;;;;5.20;3.43;;;14.40;68.40;;;;;;4957458;29;20459;-78
2023/04/30 10:33:54;;;;;;;7.23;3.83;;;14.40;67.80;;;;;;4958098;29;20486;-77
2023/04/30 10:36:30;;;;;;;3.33;2.50;;;14.50;67.90;;;;;;4957523;28;20475;-77
2023/04/30 10:39:02;;;;;;;3.70;2.80;;;14.50;68.10;;;;;;4959854;28;20974;-78
2023/04/30 10:41:31;;;;;;;4.37;2.73;;;14.60;66.80;;;;;;4961341;29;20475;-77
2023/04/30 10:44:01;;;;;;;3.90;2.53;;;14.60;66.40;;;;;;4960724;29;20488;-77
2023/04/30 10:46:30;;;;;;;4.33;3.00;;;14.60;66.70;;;;;;4958312;29;20830;-76
2023/04/30 10:48:58;;;;;;;4.33;2.50;;;14.60;65.90;;;;;;4937957;29;20477;-76
2023/04/30 10:51:45;;;;;;;2.50;2.30;;;14.60;66.00;;;;;;4945966;29;20471;-75
2023/04/30 10:54:16;;;;;;;4.13;2.70;;;14.70;65.20;;;;;;4955786;29;20555;-77
2023/04/30 10:56:45;;;;;;;4.43;2.70;;;14.70;65.40;;;;;;4955394;28;20502;-75
2023/04/30 10:59:12;;;;;;;6.30;5.10;;;14.70;65.90;;;;;;4954715;29;21164;-76
2023/04/30 11:01:56;;;;;;;5.10;3.40;;;14.70;66.70;;;;;;4952460;29;20472;-76
2023/04/30 11:04:26;;;;;;;5.23;4.40;;;14.70;67.20;;;;;;4953325;28;20475;-76
2023/04/30 11:07:02;;;;;;;3.57;3.23;;;14.80;67.80;;;;;;4954580;29;20483;-77
2023/04/30 11:09:40;;;;;;;4.37;2.60;;;14.80;66.70;;;;;;4953395;29;20475;-77
2023/04/30 11:12:13;;;;;;;4.30;2.13;;;14.90;65.30;;;;;;4952985;29;20858;-76
2023/04/30 11:14:42;;;;;;;3.43;2.43;;;14.90;66.00;;;;;;4952190;28;20463;-76
2023/04/30 11:17:11;;;;;;;4.77;3.20;;;14.90;66.30;;;;;;4955577;29;20666;-77
2023/04/30 11:19:47;;;;;;;4.13;3.60;;;15.00;66.00;;;;;;4955362;29;20474;-76
2023/04/30 11:22:19;;;;;;;5.90;3.13;;;15.00;65.60;;;;;;4955740;29;20554;-76
2023/04/30 11:25:08;;;;;;;4.00;3.17;;;15.00;66.30;;;;;;4954986;29;20476;-76
2023/04/30 11:27:37;;;;;;;2.87;2.57;;;15.00;65.20;;;;;;4955242;29;21036;-77
2023/04/30 11:30:12;;;;;;;4.50;2.90;;;15.00;65.40;;;;;;4956998;29;20794;-77
2023/04/30 11:32:39;;;;;;;4.20;2.53;;;15.10;64.40;;;;;;4955806;29;20475;-76
2023/04/30 11:35:07;;;;;;;3.80;3.33;;;15.10;64.80;;;;;;4955517;29;20870;-77
2023/04/30 11:37:36;;;;;;;6.33;2.80;;;15.10;63.90;;;;;;4953963;29;20990;-77
2023/04/30 11:40:06;;;;;;;5.43;2.90;;;15.10;62.80;;;;;;4955652;29;20541;-76
2023/04/30 11:42:35;;;;;;;3.20;2.60;;;15.10;63.00;;;;;;4955689;29;20475;-76
2023/04/30 11:45:07;;;;;;;6.20;2.73;;;15.10;63.40;;;;;;4955326;29;20478;-76
2023/04/30 11:47:42;;;;;;;2.93;2.63;;;15.10;63.80;;;;;;4952186;29;20947;-76
2023/04/30 11:50:10;;;;;;;5.43;2.37;;;15.20;64.10;;;;;;4935537;29;20476;-76
2023/04/30 11:52:38;;;;;;;3.07;2.37;;;15.20;63.70;;;;;;4935278;29;20563;-76
2023/04/30 11:55:13;;;;;;;5.17;3.40;;;15.20;63.00;;;;;;4943856;28;20527;-76
2023/04/30 11:57:43;;;;;;;3.47;2.53;;;15.30;63.90;;;;;;4944745;29;20599;-77
2023/04/30 12:00:15;;;;;;;3.10;2.47;;;15.30;63.10;;;;;;4955177;29;20946;-77
2023/04/30 12:02:44;;;;;;;7.40;3.90;;;15.30;63.50;;;;;;4954148;29;20463;-77
2023/04/30 12:05:15;;;;;;;5.20;4.27;;;15.40;63.70;;;;;;4955562;28;20781;-77
2023/04/30 12:07:51;;;;;;;5.63;3.00;;;15.30;63.40;;;;;;4954439;29;20478;-76
2023/04/30 12:10:20;;;;;;;3.17;2.30;;;15.30;62.50;;;;;;4954153;29;20948;-77
2023/04/30 12:12:50;;;;;;;4.20;2.80;;;15.30;62.60;;;;;;4953124;29;20977;-77
2023/04/30 12:15:25;;;;;;;3.10;2.13;;;15.30;63.20;;;;;;4954348;28;20514;-78
2023/04/30 12:17:52;;;;;;;4.40;2.50;;;15.40;63.80;;;;;;4954487;29;20502;-77
2023/04/30 12:20:21;;;;;;;2.40;1.87;;;15.40;63.50;;;;;;4954876;29;20514;-78
2023/04/30 12:22:49;;;;;;;2.90;2.60;;;15.40;63.50;;;;;;4953529;29;20531;-76
2023/04/30 12:25:17;;;;;;;3.07;2.50;;;15.50;63.90;;;;;;4954967;28;20515;-77
2023/04/30 12:27:46;;;;;;;3.00;2.80;;;15.50;64.00;;;;;;4954414;29;20829;-78
2023/04/30 12:30:15;;;;;;;3.17;2.57;;;15.50;63.90;;;;;;4954758;29;20468;-77
2023/04/30 12:32:46;;;;;;;3.80;2.63;;;15.50;63.90;;;;;;4944512;29;20494;-77
2023/04/30 12:35:17;;;;;;;2.93;2.60;;;15.50;63.50;;;;;;4947292;28;20475;-78
2023/04/30 12:37:45;;;;;;;8.43;2.93;;;15.60;63.30;;;;;;4955503;29;20472;-76
2023/04/30 12:40:13;;;;;;;3.03;2.47;;;15.60;63.50;;;;;;4954246;29;20464;-77
2023/04/30 12:42:43;;;;;;;2.57;2.23;;;15.60;64.30;;;;;;4954572;29;20535;-77
2023/04/30 12:45:14;;;;;;;3.63;3.30;;;15.60;63.80;;;;;;4943460;29;20571;-77
2023/04/30 12:47:46;;;;;;;5.63;2.80;;;15.60;63.20;;;;;;4954208;29;20501;-78
2023/04/30 12:50:13;;;;;;;5.53;2.97;;;15.60;62.90;;;;;;4954097;29;20475;-77
2023/04/30 12:52:46;;;;;;;2.00;1.70;;;15.70;63.00;;;;;;4954817;29;21018;-76
2023/04/30 12:55:18;;;;;;;4.27;3.00;;;15.70;63.10;;;;;;4954356;28;20500;-76
2023/04/30 12:58:08;;;;;;;4.80;3.20;;;15.70;62.30;;;;;;4954861;29;20749;-75
2023/04/30 13:00:46;;;;;;;5.20;2.83;;;15.70;63.30;;;;;;4945481;28;20803;-75